Time;durP1;ratioP1;P1;durP2;ratioP2;P2;SDS_P1;SDS_P2;PMS_P1;PMS_P2;Temp;Humidity;BMP_temperature;BMP_pressure;BME280_temperature;BME280_humidity;BME280_pressure;Samples;Min_cycle;Max_cycle;Signal;HPM_P1;HPM_P2
2023/03/29 00:00:34;;;;;;;2.23;2.13;;;3.40;81.50;;;;;;5091792;28;20178;-79
2023/03/29 00:03:02;;;;;;;3.03;2.60;;;3.50;81.70;;;;;;5073298;28;20224;-77
2023/03/29 00:05:32;;;;;;;2.00;1.90;;;3.50;81.70;;;;;;5091474;28;20236;-77
2023/03/29 00:08:02;;;;;;;2.70;2.30;;;3.50;81.90;;;;;;5091580;28;20180;-79
2023/03/29 00:10:31;;;;;;;2.70;2.50;;;3.50;81.40;;;;;;5092011;28;20174;-77
2023/03/29 00:12:57;;;;;;;2.57;2.37;;;3.50;82.40;;;;;;5091682;28;20206;-78
2023/03/29 00:15:23;;;;;;;2.43;2.27;;;3.50;82.00;;;;;;5073229;28;20175;-78
2023/03/29 00:17:49;;;;;;;2.30;2.10;;;3.50;81.80;;;;;;5073184;28;20177;-77
2023/03/29 00:20:17;;;;;;;3.20;2.20;;;3.50;82.00;;;;;;5091419;28;20174;-79
2023/03/29 00:22:45;;;;;;;2.20;2.10;;;3.50;82.00;;;;;;5091952;28;20206;-77
2023/03/29 00:25:12;;;;;;;2.23;2.13;;;3.50;82.40;;;;;;5091259;28;20173;-78
2023/03/29 00:27:39;;;;;;;3.20;2.27;;;3.50;83.40;;;;;;5093433;28;20198;-77
2023/03/29 00:30:07;;;;;;;2.23;2.13;;;3.50;82.70;;;;;;5077231;28;20689;-79
2023/03/29 00:32:33;;;;;;;2.30;2.13;;;3.50;82.50;;;;;;5095254;28;20252;-78
2023/03/29 00:34:59;;;;;;;3.37;2.33;;;3.40;82.70;;;;;;5094848;28;20177;-79
2023/03/29 00:37:29;;;;;;;2.27;2.07;;;3.40;82.90;;;;;;5094873;28;20262;-79
2023/03/29 00:39:56;;;;;;;1.90;1.80;;;3.40;82.80;;;;;;5094937;28;20231;-78
2023/03/29 00:42:22;;;;;;;2.23;2.13;;;3.30;82.30;;;;;;5095000;28;20273;-79
2023/03/29 00:45:03;;;;;;;3.17;1.80;;;3.30;82.40;;;;;;5094725;28;20276;-79
2023/03/29 00:47:48;;;;;;;2.47;2.27;;;3.20;82.50;;;;;;5076472;28;20184;-78
2023/03/29 00:50:25;;;;;;;2.33;2.07;;;3.10;82.50;;;;;;5094941;28;20184;-78
2023/03/29 00:52:58;;;;;;;3.10;1.93;;;2.90;83.00;;;;;;5094569;28;20511;-79
2023/03/29 00:55:28;;;;;;;2.10;2.00;;;2.90;83.20;;;;;;5094501;28;20187;-78
2023/03/29 00:57:56;;;;;;;2.23;2.03;;;2.90;83.40;;;;;;5094771;28;20166;-78
2023/03/29 01:00:30;;;;;;;3.07;2.20;;;2.80;83.80;;;;;;5094577;28;20174;-78
2023/03/29 01:02:59;;;;;;;2.83;1.80;;;2.80;84.50;;;;;;5094442;28;20202;-79
2023/03/29 01:05:37;;;;;;;1.90;1.80;;;2.80;84.80;;;;;;5094916;28;20181;-78
2023/03/29 01:08:20;;;;;;;1.73;1.63;;;2.60;85.20;;;;;;5094363;28;20178;-78
2023/03/29 01:10:57;;;;;;;2.43;2.03;;;2.50;85.80;;;;;;5096090;28;20671;-78
2023/03/29 01:13:33;;;;;;;1.93;1.83;;;2.40;86.30;;;;;;5100581;28;20164;-78
2023/03/29 01:16:00;;;;;;;3.37;1.73;;;2.30;85.90;;;;;;5101330;28;20170;-78
2023/03/29 01:18:26;;;;;;;1.97;1.87;;;2.30;86.20;;;;;;5096045;28;20178;-78
2023/03/29 01:21:13;;;;;;;2.03;1.93;;;2.30;86.00;;;;;;5094692;28;20188;-78
2023/03/29 01:24:05;;;;;;;2.93;2.20;;;2.40;85.70;;;;;;5075957;28;20186;-77
2023/03/29 01:27:00;;;;;;;1.93;1.83;;;2.50;85.50;;;;;;5075850;28;20289;-78
2023/03/29 01:29:47;;;;;;;4.00;1.90;;;2.60;85.10;;;;;;5076470;28;20971;-78
2023/03/29 01:32:36;;;;;;;2.10;2.00;;;2.40;85.50;;;;;;5094259;28;20193;-78
2023/03/29 01:35:09;;;;;;;3.93;1.90;;;2.50;85.70;;;;;;5094064;28;20645;-78
2023/03/29 01:37:40;;;;;;;1.90;1.80;;;2.40;85.50;;;;;;5093430;28;20178;-78
2023/03/29 01:40:06;;;;;;;2.20;2.10;;;2.40;85.50;;;;;;5093266;28;20668;-81
2023/03/29 01:42:50;;;;;;;2.03;1.93;;;2.40;85.60;;;;;;5094017;28;20254;-78
2023/03/29 01:45:21;;;;;;;2.13;2.03;;;2.40;85.60;;;;;;5093667;28;20218;-79
2023/03/29 01:48:02;;;;;;;2.90;1.90;;;2.30;85.80;;;;;;5093280;28;20189;-78
2023/03/29 01:50:40;;;;;;;3.10;2.10;;;2.40;86.10;;;;;;5093550;28;20166;-78
2023/03/29 01:53:16;;;;;;;1.73;1.63;;;2.40;86.00;;;;;;5093714;28;20259;-78
2023/03/29 01:55:48;;;;;;;2.00;1.90;;;2.30;86.10;;;;;;5093690;28;20161;-80
2023/03/29 01:58:16;;;;;;;1.83;1.73;;;2.40;85.80;;;;;;5074906;28;20169;-78
2023/03/29 02:00:42;;;;;;;2.37;1.80;;;2.50;85.80;;;;;;5093415;28;20167;-78
2023/03/29 02:03:09;;;;;;;2.73;1.83;;;2.40;85.90;;;;;;5093324;28;20256;-80
2023/03/29 02:05:38;;;;;;;3.43;2.00;;;2.50;86.10;;;;;;5093409;28;20168;-79
2023/03/29 02:08:06;;;;;;;1.80;1.70;;;2.50;85.50;;;;;;5092745;28;20178;-79
2023/03/29 02:10:33;;;;;;;2.97;2.10;;;2.60;85.40;;;;;;5093486;28;20160;-78
2023/03/29 02:13:00;;;;;;;3.50;2.03;;;2.60;85.10;;;;;;5093131;28;20175;-79
2023/03/29 02:15:26;;;;;;;3.80;1.80;;;2.60;85.20;;;;;;5093168;28;20642;-78
2023/03/29 02:17:53;;;;;;;2.20;1.90;;;2.50;85.40;;;;;;5092702;28;20679;-79
2023/03/29 02:20:26;;;;;;;2.30;2.00;;;2.50;85.50;;;;;;5075458;28;20186;-80
2023/03/29 02:23:03;;;;;;;1.90;1.80;;;2.40;85.50;;;;;;5074781;28;20211;-78
2023/03/29 02:25:31;;;;;;;1.97;1.80;;;2.50;85.80;;;;;;5093054;28;20169;-79
2023/03/29 02:27:58;;;;;;;2.20;2.00;;;2.50;85.80;;;;;;5092470;28;20173;-78
2023/03/29 02:30:30;;;;;;;2.37;2.17;;;2.50;85.70;;;;;;5092747;28;20178;-78
2023/03/29 02:33:44;;;;;;;1.73;1.63;;;2.50;85.60;;;;;;5093136;28;20171;-79
2023/03/29 02:36:22;;;;;;;2.00;1.90;;;2.50;85.40;;;;;;5087820;28;20216;-78
2023/03/29 02:38:48;;;;;;;1.90;1.80;;;2.40;85.90;;;;;;5092405;28;20193;-77
2023/03/29 02:41:16;;;;;;;2.00;1.90;;;2.50;86.10;;;;;;5092673;28;20201;-79
2023/03/29 02:43:45;;;;;;;1.60;1.60;;;2.60;85.60;;;;;;5092891;28;20249;-78
2023/03/29 02:46:13;;;;;;;2.00;1.80;;;2.60;85.70;;;;;;5092492;28;20225;-79
2023/03/29 02:48:40;;;;;;;1.80;1.70;;;2.60;85.70;;;;;;5092210;28;20194;-79
2023/03/29 02:51:15;;;;;;;1.70;1.70;;;2.50;85.60;;;;;;5092451;28;20174;-79
2023/03/29 02:53:50;;;;;;;1.93;1.83;;;2.50;85.30;;;;;;5092640;28;20529;-79
2023/03/29 02:56:18;;;;;;;1.77;1.67;;;2.40;85.80;;;;;;5092991;28;20218;-80
2023/03/29 02:58:44;;;;;;;1.70;1.60;;;2.40;85.90;;;;;;5092427;28;20286;-78
2023/03/29 03:01:10;;;;;;;1.90;1.80;;;2.60;85.90;;;;;;5093544;28;20208;-77
2023/03/29 03:03:36;;;;;;;1.83;1.73;;;2.70;85.50;;;;;;5100367;28;20209;-77
2023/03/29 03:06:02;;;;;;;1.90;1.80;;;2.60;85.10;;;;;;5099968;28;20166;-77
2023/03/29 03:08:28;;;;;;;1.70;1.60;;;2.60;85.20;;;;;;5097308;28;20190;-79
2023/03/29 03:10:54;;;;;;;1.97;1.87;;;2.50;85.30;;;;;;5094067;28;20174;-79
2023/03/29 03:13:20;;;;;;;2.90;1.80;;;2.60;85.40;;;;;;5093421;28;20656;-78
2023/03/29 03:15:47;;;;;;;1.60;1.57;;;2.60;85.20;;;;;;5092661;28;20188;-79
2023/03/29 03:18:14;;;;;;;3.10;1.80;;;2.50;85.10;;;;;;5091989;28;20533;-78
2023/03/29 03:20:40;;;;;;;1.80;1.70;;;2.50;85.40;;;;;;5092356;28;20248;-79
2023/03/29 03:23:08;;;;;;;1.80;1.70;;;2.60;85.50;;;;;;5091947;28;20674;-78
2023/03/29 03:25:34;;;;;;;2.63;1.90;;;2.60;85.60;;;;;;5092067;28;20549;-79
2023/03/29 03:28:01;;;;;;;2.00;1.90;;;2.70;86.20;;;;;;5091632;28;20177;-77
2023/03/29 03:30:27;;;;;;;2.87;1.60;;;2.60;85.50;;;;;;5091960;28;20171;-79
2023/03/29 03:32:53;;;;;;;1.93;1.63;;;2.60;85.60;;;;;;5092053;28;20171;-79
2023/03/29 03:35:20;;;;;;;2.00;1.90;;;2.50;85.70;;;;;;5092029;28;20220;-79
2023/03/29 03:37:46;;;;;;;1.80;1.70;;;2.50;86.00;;;;;;5073459;28;20181;-79
2023/03/29 03:40:12;;;;;;;1.90;1.80;;;2.50;85.80;;;;;;5091963;28;20168;-78
2023/03/29 03:42:40;;;;;;;2.00;1.90;;;2.50;85.70;;;;;;5074054;28;20202;-79
2023/03/29 03:45:07;;;;;;;2.27;1.90;;;2.40;85.60;;;;;;5091838;28;20247;-78
2023/03/29 03:47:36;;;;;;;2.33;2.00;;;2.50;85.90;;;;;;5091789;28;20171;-79
2023/03/29 03:50:03;;;;;;;1.87;1.77;;;2.50;86.20;;;;;;5091969;28;20166;-79
2023/03/29 03:52:29;;;;;;;1.93;1.83;;;2.50;86.10;;;;;;5091772;28;20269;-79
2023/03/29 03:54:55;;;;;;;2.50;2.27;;;2.60;85.70;;;;;;5091825;28;20685;-77
2023/03/29 03:57:23;;;;;;;2.60;1.83;;;2.60;85.80;;;;;;5091872;28;20225;-78
2023/03/29 03:59:49;;;;;;;2.70;1.60;;;2.60;85.80;;;;;;5091575;28;20173;-79
2023/03/29 04:02:15;;;;;;;2.27;2.07;;;2.70;85.80;;;;;;5093441;28;20216;-77
2023/03/29 04:04:41;;;;;;;2.00;1.90;;;2.70;85.40;;;;;;5095758;28;20185;-78
2023/03/29 04:07:07;;;;;;;1.80;1.70;;;2.70;85.80;;;;;;5095527;28;20185;-78
2023/03/29 04:09:33;;;;;;;1.80;1.77;;;2.70;86.10;;;;;;5095764;28;20184;-80
2023/03/29 04:12:00;;;;;;;1.73;1.63;;;2.60;85.80;;;;;;5096039;28;20197;-79
2023/03/29 04:14:27;;;;;;;2.40;2.23;;;2.60;86.00;;;;;;5095651;28;20226;-78
2023/03/29 04:16:53;;;;;;;1.60;1.50;;;2.60;86.20;;;;;;5095453;28;20534;-79
2023/03/29 04:19:19;;;;;;;1.77;1.67;;;2.50;86.30;;;;;;5095078;28;20176;-78
2023/03/29 04:21:48;;;;;;;1.60;1.50;;;2.60;86.30;;;;;;5077150;28;20721;-78
2023/03/29 04:24:14;;;;;;;1.80;1.70;;;2.70;86.40;;;;;;5095719;28;20175;-79
2023/03/29 04:26:40;;;;;;;2.00;1.90;;;2.60;86.90;;;;;;5095796;28;20628;-77
2023/03/29 04:29:06;;;;;;;1.80;1.80;;;2.70;86.40;;;;;;5095678;28;20244;-77
2023/03/29 04:31:32;;;;;;;2.20;1.60;;;2.70;86.30;;;;;;5095731;28;20246;-78
2023/03/29 04:33:58;;;;;;;2.10;2.00;;;2.70;86.30;;;;;;5095261;28;20251;-79
2023/03/29 04:36:24;;;;;;;1.90;1.80;;;2.80;86.10;;;;;;5095167;28;20256;-78
2023/03/29 04:38:51;;;;;;;3.83;1.90;;;2.70;86.10;;;;;;5094433;28;20232;-78
2023/03/29 04:41:17;;;;;;;2.00;1.90;;;2.70;86.20;;;;;;5076907;28;20173;-79
2023/03/29 04:43:46;;;;;;;1.97;1.83;;;2.80;86.00;;;;;;5094909;28;20202;-77
2023/03/29 04:46:13;;;;;;;2.57;1.93;;;2.80;85.40;;;;;;5108082;28;20896;-79
2023/03/29 04:48:39;;;;;;;2.33;2.10;;;2.70;85.70;;;;;;5115509;28;20251;-77
2023/03/29 04:51:05;;;;;;;2.00;1.90;;;2.70;85.70;;;;;;5115371;28;20166;-78
2023/03/29 04:53:31;;;;;;;1.90;1.80;;;2.80;85.50;;;;;;5115564;28;20256;-78
2023/03/29 04:55:58;;;;;;;1.60;1.57;;;2.80;85.90;;;;;;5114614;28;20751;-78
2023/03/29 04:58:25;;;;;;;1.60;1.50;;;2.80;85.80;;;;;;5118337;28;20162;-79
2023/03/29 05:00:53;;;;;;;1.70;1.70;;;2.90;85.50;;;;;;5128086;28;20171;-78
2023/03/29 05:03:20;;;;;;;3.17;2.03;;;2.90;85.60;;;;;;5118003;28;20253;-79
2023/03/29 05:05:46;;;;;;;2.30;2.10;;;2.90;85.90;;;;;;5116954;28;20188;-79
2023/03/29 05:08:12;;;;;;;1.97;1.87;;;2.90;86.20;;;;;;5115584;28;20625;-78
2023/03/29 05:10:42;;;;;;;1.93;1.60;;;2.90;86.10;;;;;;5114876;28;20185;-80
2023/03/29 05:13:08;;;;;;;1.80;1.70;;;2.90;86.00;;;;;;5112697;28;20214;-78
2023/03/29 05:15:35;;;;;;;3.33;2.20;;;3.00;86.00;;;;;;5113771;28;20567;-79
2023/03/29 05:18:01;;;;;;;2.13;1.93;;;2.90;86.50;;;;;;5114717;28;20169;-79
2023/03/29 05:20:28;;;;;;;3.10;2.00;;;3.00;85.90;;;;;;5114864;28;20213;-79
2023/03/29 05:22:54;;;;;;;5.07;2.20;;;2.90;85.80;;;;;;5114645;28;20660;-77
2023/03/29 05:25:21;;;;;;;2.20;2.00;;;3.00;86.00;;;;;;5113430;28;20180;-78
2023/03/29 05:27:46;;;;;;;2.20;2.10;;;3.10;85.90;;;;;;5114524;28;20202;-79
2023/03/29 05:30:14;;;;;;;3.40;2.30;;;3.10;85.80;;;;;;5113018;28;20184;-79
2023/03/29 05:32:41;;;;;;;5.23;2.10;;;3.20;85.60;;;;;;5114817;28;20176;-78
2023/03/29 05:35:07;;;;;;;2.13;2.03;;;3.20;85.40;;;;;;5114675;28;20214;-79
2023/03/29 05:37:33;;;;;;;2.10;2.00;;;3.30;85.30;;;;;;5114205;28;20173;-78
2023/03/29 05:39:59;;;;;;;4.43;2.30;;;3.30;85.10;;;;;;5114225;28;20188;-78
2023/03/29 05:42:26;;;;;;;2.17;2.07;;;3.40;85.10;;;;;;5114502;28;20239;-79
2023/03/29 05:44:53;;;;;;;2.00;1.90;;;3.30;85.00;;;;;;5108054;28;20285;-77
2023/03/29 05:47:19;;;;;;;2.20;2.00;;;3.40;85.50;;;;;;5093758;28;20259;-78
2023/03/29 05:49:45;;;;;;;2.03;1.93;;;3.50;84.90;;;;;;5075581;28;20340;-80
2023/03/29 05:52:12;;;;;;;2.43;2.07;;;3.70;84.30;;;;;;5093867;28;20224;-77
2023/03/29 05:54:38;;;;;;;2.27;2.03;;;3.80;83.90;;;;;;5093910;28;20173;-78
2023/03/29 05:57:04;;;;;;;3.57;2.40;;;3.70;84.00;;;;;;5093646;28;20180;-80
2023/03/29 05:59:31;;;;;;;2.50;2.30;;;3.70;84.10;;;;;;5093667;28;20162;-78
2023/03/29 06:01:59;;;;;;;2.70;2.50;;;3.80;84.40;;;;;;5093453;28;20212;-80
2023/03/29 06:04:25;;;;;;;1.90;1.80;;;3.80;84.10;;;;;;5094020;28;20259;-79
2023/03/29 06:06:52;;;;;;;4.00;2.50;;;3.90;83.90;;;;;;5093528;28;20187;-79
2023/03/29 06:09:18;;;;;;;4.77;2.30;;;3.90;83.60;;;;;;5095350;28;20165;-78
2023/03/29 06:11:45;;;;;;;2.60;2.30;;;4.00;83.60;;;;;;5093992;28;20170;-80
2023/03/29 06:14:12;;;;;;;3.63;2.30;;;4.10;83.40;;;;;;5093368;28;20166;-80
2023/03/29 06:16:39;;;;;;;2.57;2.30;;;4.20;83.30;;;;;;5093273;28;20174;-77
2023/03/29 06:19:06;;;;;;;2.50;2.30;;;4.20;84.00;;;;;;5093139;28;20179;-78
2023/03/29 06:21:32;;;;;;;2.63;2.23;;;4.30;83.60;;;;;;5093244;28;20190;-78
2023/03/29 06:23:58;;;;;;;2.43;2.30;;;4.30;83.00;;;;;;5093085;28;20634;-80
2023/03/29 06:26:26;;;;;;;2.60;2.33;;;4.40;83.20;;;;;;5093019;28;20586;-79
2023/03/29 06:28:52;;;;;;;3.73;2.23;;;4.50;83.50;;;;;;5074668;28;20174;-77
2023/03/29 06:31:18;;;;;;;5.73;2.63;;;4.60;83.00;;;;;;5093225;28;20167;-78
2023/03/29 06:33:45;;;;;;;3.27;2.40;;;4.40;83.40;;;;;;5094456;28;20164;-77
2023/03/29 06:36:14;;;;;;;2.23;2.10;;;4.40;83.30;;;;;;5093696;28;20169;-78
2023/03/29 06:38:41;;;;;;;3.87;2.40;;;4.50;83.70;;;;;;5093890;28;20267;-80
2023/03/29 06:41:09;;;;;;;2.37;2.17;;;4.50;83.20;;;;;;5075949;28;20185;-79
2023/03/29 06:43:36;;;;;;;2.90;2.70;;;4.50;83.60;;;;;;5094585;28;20205;-79
2023/03/29 06:46:03;;;;;;;2.63;2.43;;;4.60;83.60;;;;;;5104477;28;20227;-78
2023/03/29 06:48:28;;;;;;;3.90;2.30;;;4.60;83.10;;;;;;5115247;28;20177;-77
2023/03/29 06:50:55;;;;;;;3.87;2.77;;;4.70;83.60;;;;;;5119172;28;20193;-78
2023/03/29 06:53:21;;;;;;;4.03;2.63;;;4.80;83.30;;;;;;5126998;28;20183;-78
2023/03/29 06:55:47;;;;;;;2.83;2.63;;;4.80;83.30;;;;;;5131929;28;20174;-78
2023/03/29 06:58:14;;;;;;;3.40;2.90;;;4.90;82.30;;;;;;5123368;28;20535;-77
2023/03/29 07:00:41;;;;;;;2.63;2.47;;;4.90;82.70;;;;;;5116809;28;20177;-77
2023/03/29 07:03:12;;;;;;;2.60;2.40;;;4.90;82.70;;;;;;5116530;28;20229;-79
2023/03/29 07:05:40;;;;;;;2.50;2.30;;;5.00;82.30;;;;;;5114296;28;20165;-79
2023/03/29 07:10:38;;;;;;;2.53;2.30;;;5.20;81.80;;;;;;5114102;28;20173;-78
2023/03/29 07:13:07;;;;;;;3.03;2.47;;;5.20;82.30;;;;;;5112257;28;20170;-78
2023/03/29 07:15:33;;;;;;;2.73;2.53;;;5.30;82.00;;;;;;5112629;28;20206;-77
2023/03/29 07:18:01;;;;;;;5.50;4.57;;;5.10;80.90;;;;;;5112350;28;20177;-77
2023/03/29 07:20:27;;;;;;;2.80;2.60;;;5.20;81.90;;;;;;5112644;28;20176;-77
2023/03/29 07:22:53;;;;;;;3.00;2.80;;;5.30;81.70;;;;;;5112402;28;20261;-79
2023/03/29 07:25:23;;;;;;;3.43;2.70;;;5.40;81.70;;;;;;5112579;28;20232;-80
2023/03/29 07:27:49;;;;;;;5.03;2.90;;;5.60;81.40;;;;;;5112179;28;20192;-78
2023/03/29 07:30:21;;;;;;;3.13;2.40;;;5.70;82.00;;;;;;5112612;28;20175;-77
2023/03/29 07:32:49;;;;;;;2.80;2.43;;;5.70;81.20;;;;;;5112420;28;20179;-79
2023/03/29 07:35:16;;;;;;;2.73;2.53;;;5.70;80.90;;;;;;5112391;28;20183;-78
2023/03/29 07:37:43;;;;;;;2.60;2.27;;;5.70;80.40;;;;;;5115143;28;20926;-79
2023/03/29 07:40:18;;;;;;;2.93;2.40;;;5.70;80.30;;;;;;5116830;28;20174;-78
2023/03/29 07:42:47;;;;;;;5.57;2.83;;;5.70;80.50;;;;;;5116754;28;20278;-76
2023/03/29 07:45:15;;;;;;;2.87;2.47;;;5.70;80.30;;;;;;5115433;28;20584;-79
2023/03/29 07:47:42;;;;;;;3.10;1.97;;;5.70;80.30;;;;;;5115352;28;20176;-78
2023/03/29 07:50:08;;;;;;;2.87;2.63;;;5.70;80.80;;;;;;5117063;28;20178;-78
2023/03/29 07:52:37;;;;;;;3.17;2.60;;;5.90;83.90;;;;;;5117876;28;20175;-78
2023/03/29 07:55:07;;;;;;;2.40;2.30;;;6.00;81.50;;;;;;5117692;28;20668;-79
2023/03/29 07:57:34;;;;;;;2.40;2.20;;;6.20;84.60;;;;;;5116526;28;20158;-79
2023/03/29 07:59:59;;;;;;;2.80;2.60;;;6.30;83.50;;;;;;5116391;27;20181;-79
2023/03/29 08:02:26;;;;;;;2.33;2.20;;;6.40;78.90;;;;;;5116009;28;20202;-77
2023/03/29 08:04:55;;;;;;;2.73;2.50;;;6.50;79.30;;;;;;5117994;28;20166;-79
2023/03/29 08:07:22;;;;;;;2.67;2.03;;;6.60;80.60;;;;;;5114626;28;20617;-79
2023/03/29 08:09:48;;;;;;;2.83;2.27;;;6.70;83.60;;;;;;5116248;27;20187;-78
2023/03/29 08:12:14;;;;;;;2.33;2.23;;;6.70;82.10;;;;;;5115725;28;20270;-79
2023/03/29 08:14:40;;;;;;;2.50;2.30;;;6.80;79.90;;;;;;5115855;27;20163;-78
2023/03/29 08:17:06;;;;;;;2.77;2.13;;;6.80;79.00;;;;;;5115663;28;20174;-78
2023/03/29 08:19:31;;;;;;;2.53;2.33;;;6.70;78.10;;;;;;5115838;28;20199;-79
2023/03/29 08:21:57;;;;;;;2.40;2.20;;;6.70;77.00;;;;;;5115712;28;20272;-78
2023/03/29 08:24:23;;;;;;;2.27;2.07;;;6.70;77.00;;;;;;5115551;28;20246;-80
2023/03/29 08:26:49;;;;;;;3.80;2.23;;;6.70;77.10;;;;;;5115707;28;20179;-78
2023/03/29 08:29:15;;;;;;;2.73;2.53;;;6.70;76.70;;;;;;5115495;28;20655;-78
2023/03/29 08:31:40;;;;;;;3.83;2.40;;;6.70;77.60;;;;;;5115839;28;20177;-80
2023/03/29 08:34:06;;;;;;;3.23;2.47;;;6.70;79.30;;;;;;5115497;28;20170;-79
2023/03/29 08:36:32;;;;;;;2.77;2.30;;;6.80;78.20;;;;;;5115771;28;20218;-78
2023/03/29 08:38:58;;;;;;;3.93;2.10;;;6.80;75.50;;;;;;5115545;28;20165;-80
2023/03/29 08:41:37;;;;;;;5.43;1.97;;;6.80;76.10;;;;;;5115532;28;20171;-80
2023/03/29 08:44:14;;;;;;;2.30;2.10;;;6.90;77.70;;;;;;5115511;28;20663;-78
2023/03/29 08:47:06;;;;;;;2.20;2.00;;;7.00;77.20;;;;;;5116642;28;20177;-80
2023/03/29 08:49:36;;;;;;;2.17;2.00;;;7.10;77.90;;;;;;5109246;28;20187;-78
2023/03/29 08:52:06;;;;;;;2.37;2.17;;;7.20;76.00;;;;;;5129197;28;20176;-78
2023/03/29 08:54:38;;;;;;;4.70;2.30;;;7.40;75.50;;;;;;5128007;28;20188;-79
2023/03/29 08:57:12;;;;;;;2.60;2.17;;;7.40;76.50;;;;;;5118697;28;20171;-80
2023/03/29 08:59:40;;;;;;;2.53;2.40;;;7.50;76.00;;;;;;5117443;28;20194;-79
2023/03/29 09:02:16;;;;;;;5.00;3.00;;;7.40;78.00;;;;;;5115379;28;20208;-78
2023/03/29 09:04:42;;;;;;;3.50;3.20;;;7.40;79.70;;;;;;5114969;28;20156;-79
2023/03/29 09:07:10;;;;;;;4.63;3.27;;;7.50;81.70;;;;;;5114783;28;20170;-78
2023/03/29 09:09:36;;;;;;;6.43;3.27;;;7.60;81.40;;;;;;5115103;27;20174;-80
2023/03/29 09:12:31;;;;;;;3.63;3.30;;;7.60;80.00;;;;;;5114971;28;20526;-79
2023/03/29 09:15:18;;;;;;;4.30;3.60;;;7.70;79.20;;;;;;5112463;28;20676;-79
2023/03/29 09:17:52;;;;;;;6.33;2.93;;;7.70;79.70;;;;;;5114545;28;20160;-78
2023/03/29 09:20:32;;;;;;;4.93;3.30;;;7.70;78.80;;;;;;5114806;28;20640;-77
2023/03/29 09:23:05;;;;;;;4.40;2.87;;;7.90;79.20;;;;;;5114762;28;20196;-78
2023/03/29 09:25:34;;;;;;;5.50;3.50;;;7.90;80.20;;;;;;5114433;28;20157;-79
2023/03/29 09:28:13;;;;;;;4.77;2.93;;;8.00;78.20;;;;;;5114255;28;20184;-77
2023/03/29 09:30:41;;;;;;;3.27;2.97;;;7.90;76.80;;;;;;5113356;28;20192;-78
2023/03/29 09:33:07;;;;;;;3.03;2.83;;;7.70;77.20;;;;;;5114743;28;20532;-77
2023/03/29 09:35:36;;;;;;;3.50;3.10;;;7.70;78.00;;;;;;5114218;28;20165;-77
2023/03/29 09:38:03;;;;;;;5.00;3.40;;;7.60;77.70;;;;;;5114118;28;20189;-76
2023/03/29 09:40:59;;;;;;;5.50;2.83;;;7.70;78.40;;;;;;5114203;28;20195;-77
2023/03/29 09:43:36;;;;;;;4.50;3.20;;;7.70;78.20;;;;;;5115725;28;20195;-78
2023/03/29 09:46:05;;;;;;;3.60;2.87;;;7.80;76.40;;;;;;5099498;28;20216;-78
2023/03/29 09:48:36;;;;;;;4.50;2.87;;;7.70;76.80;;;;;;5075420;28;20188;-79
2023/03/29 09:51:05;;;;;;;3.77;3.37;;;7.80;77.60;;;;;;5095698;28;20169;-78
2023/03/29 09:53:31;;;;;;;5.10;3.23;;;7.90;78.70;;;;;;5093709;28;20229;-77
2023/03/29 09:55:59;;;;;;;7.80;3.20;;;7.90;78.90;;;;;;5093753;28;20173;-80
2023/03/29 09:58:29;;;;;;;3.93;2.97;;;8.00;79.10;;;;;;5093325;28;20170;-79
2023/03/29 10:01:00;;;;;;;4.60;2.77;;;8.20;78.60;;;;;;5092875;28;20165;-80
2023/03/29 10:03:30;;;;;;;2.63;2.43;;;8.30;78.40;;;;;;5093255;28;20250;-79
2023/03/29 10:05:59;;;;;;;3.17;2.70;;;8.30;75.60;;;;;;5093195;28;20234;-77
2023/03/29 10:08:34;;;;;;;5.57;2.77;;;8.30;75.20;;;;;;5093283;28;20172;-79
2023/03/29 10:11:08;;;;;;;3.00;2.60;;;8.30;74.40;;;;;;5093387;28;20163;-80
2023/03/29 10:13:42;;;;;;;3.20;2.23;;;8.20;73.30;;;;;;5093259;28;20187;-78
2023/03/29 10:16:20;;;;;;;2.37;2.20;;;7.90;73.50;;;;;;5093090;28;20158;-79
2023/03/29 10:18:46;;;;;;;3.03;2.40;;;7.70;73.10;;;;;;5093083;28;20170;-79
2023/03/29 10:21:19;;;;;;;3.47;2.27;;;7.50;73.60;;;;;;5093068;28;20188;-79
2023/03/29 10:23:44;;;;;;;2.43;2.23;;;7.50;74.00;;;;;;5093064;28;20569;-78
2023/03/29 10:26:25;;;;;;;2.33;2.23;;;7.70;75.20;;;;;;5093209;28;20266;-78
2023/03/29 10:28:53;;;;;;;2.20;2.00;;;7.80;73.50;;;;;;5093007;28;20252;-77
2023/03/29 10:31:21;;;;;;;2.10;2.00;;;7.80;74.20;;;;;;5093233;28;20181;-78
2023/03/29 10:33:53;;;;;;;2.50;2.30;;;7.90;73.60;;;;;;5093228;28;20172;-79
2023/03/29 10:36:20;;;;;;;2.50;2.30;;;7.90;73.50;;;;;;5092699;28;20748;-78
2023/03/29 10:38:46;;;;;;;2.30;2.20;;;8.10;74.00;;;;;;5092861;28;20178;-80
2023/03/29 10:41:16;;;;;;;3.57;2.20;;;8.20;73.40;;;;;;5093105;28;20269;-79
2023/03/29 10:43:49;;;;;;;2.10;1.90;;;8.00;71.90;;;;;;5094173;28;20507;-78
2023/03/29 10:46:18;;;;;;;1.93;1.83;;;7.90;71.00;;;;;;5101590;28;20221;-79
2023/03/29 10:48:57;;;;;;;2.00;1.90;;;7.90;70.90;;;;;;5107773;28;20181;-78
2023/03/29 10:51:26;;;;;;;3.00;2.47;;;7.90;69.50;;;;;;5097910;28;20163;-82
2023/03/29 10:53:52;;;;;;;2.23;2.03;;;7.90;71.20;;;;;;5097018;28;20169;-77
2023/03/29 10:56:40;;;;;;;3.20;2.10;;;8.00;70.60;;;;;;5075690;28;20186;-80
2023/03/29 10:59:18;;;;;;;2.53;2.33;;;8.30;71.90;;;;;;5092786;28;20178;-79
2023/03/29 11:02:14;;;;;;;4.97;2.53;;;8.30;71.20;;;;;;5074158;28;20181;-77
2023/03/29 11:04:51;;;;;;;2.80;2.53;;;8.40;71.30;;;;;;5092608;28;20182;-77
2023/03/29 11:08:04;;;;;;;4.33;2.03;;;8.60;72.10;;;;;;5073979;28;20190;-77
2023/03/29 11:10:35;;;;;;;2.30;2.10;;;8.60;71.20;;;;;;4990530;28;20193;-79
2023/03/29 11:13:19;;;;;;;2.93;1.90;;;8.60;71.20;;;;;;4990586;28;20257;-78
2023/03/29 11:16:09;;;;;;;2.00;1.90;;;8.60;69.70;;;;;;4990488;28;20316;-79
2023/03/29 11:18:35;;;;;;;2.10;1.97;;;8.60;69.10;;;;;;4991797;28;20600;-78
2023/03/29 11:21:22;;;;;;;2.83;2.10;;;8.60;71.20;;;;;;4990597;28;20181;-78
2023/03/29 11:24:08;;;;;;;4.13;2.63;;;8.80;71.40;;;;;;4990278;28;20201;-78
2023/03/29 11:26:57;;;;;;;2.50;2.30;;;8.90;71.20;;;;;;4990431;28;20181;-79
2023/03/29 11:29:44;;;;;;;2.17;2.00;;;9.00;70.10;;;;;;4990304;28;20592;-79
2023/03/29 11:32:32;;;;;;;2.20;2.10;;;8.90;67.80;;;;;;4974859;28;20170;-77
2023/03/29 11:35:19;;;;;;;2.30;2.20;;;9.00;70.30;;;;;;4991686;28;20696;-78
2023/03/29 11:38:09;;;;;;;2.47;2.07;;;9.30;70.40;;;;;;4974012;28;20224;-78
2023/03/29 11:40:46;;;;;;;2.27;2.10;;;9.60;71.00;;;;;;5012032;28;20234;-77
2023/03/29 11:43:18;;;;;;;2.40;2.20;;;9.80;68.80;;;;;;5092168;28;20682;-78
2023/03/29 11:46:08;;;;;;;2.33;2.17;;;9.90;69.00;;;;;;5108220;28;20306;-78
2023/03/29 11:48:42;;;;;;;2.70;2.10;;;10.00;69.50;;;;;;5091704;28;20171;-78
2023/03/29 11:51:22;;;;;;;3.70;2.20;;;10.00;68.80;;;;;;5091931;28;20181;-78
2023/03/29 11:54:19;;;;;;;2.53;2.33;;;10.20;67.00;;;;;;5091855;28;20189;-78
2023/03/29 11:57:00;;;;;;;2.50;2.30;;;10.40;67.50;;;;;;5056658;28;20240;-77
2023/03/29 11:59:44;;;;;;;7.67;2.10;;;10.50;68.20;;;;;;5091843;28;20219;-77
2023/03/29 12:02:38;;;;;;;4.27;2.23;;;10.50;67.00;;;;;;5091917;28;20183;-78
2023/03/29 12:05:31;;;;;;;2.07;1.93;;;10.70;66.70;;;;;;5079926;28;20186;-79
2023/03/29 12:08:05;;;;;;;11.57;4.53;;;10.70;71.20;;;;;;5073484;28;20172;-78
2023/03/29 12:10:44;;;;;;;6.87;3.30;;;11.00;73.50;;;;;;5092003;28;20170;-78
2023/03/29 12:13:31;;;;;;;4.00;2.90;;;11.20;71.20;;;;;;5091744;28;20242;-77
2023/03/29 12:16:16;;;;;;;2.30;2.10;;;11.10;65.60;;;;;;5091728;28;20168;-77
2023/03/29 12:18:46;;;;;;;3.77;2.20;;;10.90;64.30;;;;;;5091372;28;20213;-78
2023/03/29 12:21:17;;;;;;;2.07;1.93;;;10.50;63.70;;;;;;5091653;28;20639;-78
2023/03/29 12:23:44;;;;;;;3.17;2.23;;;10.30;65.40;;;;;;5094170;28;20270;-78
2023/03/29 12:26:32;;;;;;;3.40;1.90;;;10.20;63.60;;;;;;5095417;28;20171;-79
2023/03/29 12:29:30;;;;;;;1.70;1.70;;;10.00;63.10;;;;;;5095277;28;20526;-80
2023/03/29 12:32:44;;;;;;;3.57;2.40;;;10.10;63.00;;;;;;5094818;28;20179;-77
2023/03/29 12:35:19;;;;;;;4.07;2.20;;;10.10;64.20;;;;;;5051863;28;20713;-78
2023/03/29 12:38:07;;;;;;;2.17;2.07;;;10.40;65.90;;;;;;5081473;28;20514;-77
2023/03/29 12:40:44;;;;;;;3.33;2.47;;;10.70;65.60;;;;;;5097676;28;20516;-78
2023/03/29 12:43:33;;;;;;;4.03;2.70;;;11.00;69.00;;;;;;5103535;28;20211;-77
2023/03/29 12:46:10;;;;;;;5.17;2.53;;;11.40;72.30;;;;;;5111145;28;20232;-78
2023/03/29 12:48:39;;;;;;;3.53;2.50;;;11.60;63.60;;;;;;5084456;28;20233;-77
2023/03/29 12:51:12;;;;;;;2.87;2.60;;;11.50;63.30;;;;;;5099056;28;20179;-77
2023/03/29 12:53:49;;;;;;;3.10;2.80;;;11.70;63.80;;;;;;5096582;28;20245;-77
2023/03/29 12:56:33;;;;;;;2.97;2.77;;;11.70;63.10;;;;;;5094936;28;20593;-77
2023/03/29 12:59:16;;;;;;;3.50;2.40;;;11.80;64.50;;;;;;5094455;28;20192;-78
2023/03/29 13:02:10;;;;;;;3.07;2.40;;;11.90;64.40;;;;;;5076463;28;20261;-78
2023/03/29 13:05:03;;;;;;;3.63;2.70;;;12.10;63.70;;;;;;5077056;28;20198;-76
2023/03/29 13:07:30;;;;;;;2.63;2.43;;;12.20;64.80;;;;;;5094256;28;20168;-80
2023/03/29 13:10:20;;;;;;;3.30;2.50;;;12.30;64.20;;;;;;5094557;28;20169;-78
2023/03/29 13:12:49;;;;;;;3.90;2.40;;;12.40;64.10;;;;;;5062810;28;20195;-78
2023/03/29 13:15:18;;;;;;;2.63;2.53;;;12.30;61.20;;;;;;5095511;28;20171;-77
2023/03/29 13:18:07;;;;;;;3.17;2.87;;;12.20;61.10;;;;;;5094227;28;20248;-77
2023/03/29 13:21:03;;;;;;;4.80;2.70;;;12.10;62.00;;;;;;5093932;28;20169;-78